Ames, Iowa
Current Conditions -  °F | °C
As of 8:53 PM on Saturday 22 Nov 2014 (Local Time) from KAMW Reporting Station
Overcast Overcast  
Wind Chill: 55°   Ceiling: 1600
Heat Index: 55°   Visibility: 8mi
Dew Point: 50°   Wind: 14mph
Humidity: 83%   Direction: 190°S
Pressure: 29.64"   Gusts: NA
Location:  42.03°N, 93.62°W
Report Text: KAMW 230253Z AUTO 19012KT 8SM OVC016 13/10 A2964 RMK AO2 SLP038 T01280100 56007 $
Loading
Personal Weather Stations






























Interactive Weather Map New forecast layout! Learn more

10-Day Weather Forecast

Advertisements
Track Severe Weather on mobile